sensor_id;sensor_type;location;lat;lon;timestamp;temperature;humidity
72320;SHT30;60269;52.502;16.732;2024-02-28T00:00:31;7.26;99.63
72320;SHT30;60269;52.502;16.732;2024-02-28T00:04:23;7.29;99.63
72320;SHT30;60269;52.502;16.732;2024-02-28T00:07:55;7.28;99.59
72320;SHT30;60269;52.502;16.732;2024-02-28T00:11:27;7.31;99.61
72320;SHT30;60269;52.502;16.732;2024-02-28T00:14:59;7.31;99.63
72320;SHT30;60269;52.502;16.732;2024-02-28T00:18:31;7.23;99.72
72320;SHT30;60269;52.502;16.732;2024-02-28T00:22:03;7.26;99.86
72320;SHT30;60269;52.502;16.732;2024-02-28T00:25:35;7.19;99.91
72320;SHT30;60269;52.502;16.732;2024-02-28T00:29:07;7.12;99.99
72320;SHT30;60269;52.502;16.732;2024-02-28T00:32:39;7.11;99.99
72320;SHT30;60269;52.502;16.732;2024-02-28T00:36:11;7.08;99.99
72320;SHT30;60269;52.502;16.732;2024-02-28T00:39:45;7.07;99.99
72320;SHT30;60269;52.502;16.732;2024-02-28T00:43:17;7.15;99.99
72320;SHT30;60269;52.502;16.732;2024-02-28T00:46:49;7.21;99.99
72320;SHT30;60269;52.502;16.732;2024-02-28T00:50:21;7.22;99.99
72320;SHT30;60269;52.502;16.732;2024-02-28T00:53:53;7.19;99.99
72320;SHT30;60269;52.502;16.732;2024-02-28T00:57:25;7.22;99.99
72320;SHT30;60269;52.502;16.732;2024-02-28T01:00:57;7.22;99.99
72320;SHT30;60269;52.502;16.732;2024-02-28T01:04:29;7.21;99.99
72320;SHT30;60269;52.502;16.732;2024-02-28T01:08:01;7.26;99.99
72320;SHT30;60269;52.502;16.732;2024-02-28T01:11:33;7.19;99.99
72320;SHT30;60269;52.502;16.732;2024-02-28T01:15:06;7.19;99.99
72320;SHT30;60269;52.502;16.732;2024-02-28T01:18:38;7.25;99.99
72320;SHT30;60269;52.502;16.732;2024-02-28T01:22:10;7.19;99.99
72320;SHT30;60269;52.502;16.732;2024-02-28T01:25:43;7.18;99.99
72320;SHT30;60269;52.502;16.732;2024-02-28T01:29:14;7.15;99.99
72320;SHT30;60269;52.502;16.732;2024-02-28T01:32:46;7.16;99.99
72320;SHT30;60269;52.502;16.732;2024-02-28T01:36:18;7.16;99.99
72320;SHT30;60269;52.502;16.732;2024-02-28T01:39:50;7.15;99.99
72320;SHT30;60269;52.502;16.732;2024-02-28T01:43:23;7.21;99.99
72320;SHT30;60269;52.502;16.732;2024-02-28T01:46:55;7.23;99.99
72320;SHT30;60269;52.502;16.732;2024-02-28T01:50:28;7.28;99.99
72320;SHT30;60269;52.502;16.732;2024-02-28T01:54:00;7.26;99.99
72320;SHT30;60269;52.502;16.732;2024-02-28T01:57:33;7.25;99.99
72320;SHT30;60269;52.502;16.732;2024-02-28T02:01:07;7.23;99.99
72320;SHT30;60269;52.502;16.732;2024-02-28T02:04:40;7.21;99.99
72320;SHT30;60269;52.502;16.732;2024-02-28T02:08:12;7.22;99.99
72320;SHT30;60269;52.502;16.732;2024-02-28T02:11:44;7.22;99.99
72320;SHT30;60269;52.502;16.732;2024-02-28T02:15:16;7.26;99.99
72320;SHT30;60269;52.502;16.732;2024-02-28T02:18:48;7.29;99.99
72320;SHT30;60269;52.502;16.732;2024-02-28T02:22:21;7.31;99.99
72320;SHT30;60269;52.502;16.732;2024-02-28T02:25:55;7.28;99.99
72320;SHT30;60269;52.502;16.732;2024-02-28T02:29:27;7.28;99.99
72320;SHT30;60269;52.502;16.732;2024-02-28T02:33:00;7.22;99.99
72320;SHT30;60269;52.502;16.732;2024-02-28T02:36:32;7.26;99.99
72320;SHT30;60269;52.502;16.732;2024-02-28T02:40:04;7.25;99.99
72320;SHT30;60269;52.502;16.732;2024-02-28T02:43:37;7.29;99.87
72320;SHT30;60269;52.502;16.732;2024-02-28T02:47:09;7.25;99.96
72320;SHT30;60269;52.502;16.732;2024-02-28T02:50:41;7.32;99.66
72320;SHT30;60269;52.502;16.732;2024-02-28T02:54:13;7.19;99.90
72320;SHT30;60269;52.502;16.732;2024-02-28T02:57:45;7.14;99.90
72320;SHT30;60269;52.502;16.732;2024-02-28T03:01:18;7.14;99.99
72320;SHT30;60269;52.502;16.732;2024-02-28T03:04:52;7.11;99.99
72320;SHT30;60269;52.502;16.732;2024-02-28T03:08:24;7.02;99.99
72320;SHT30;60269;52.502;16.732;2024-02-28T03:11:55;7.02;99.99
72320;SHT30;60269;52.502;16.732;2024-02-28T03:15:27;7.01;99.99
72320;SHT30;60269;52.502;16.732;2024-02-28T03:18:59;6.95;99.99
72320;SHT30;60269;52.502;16.732;2024-02-28T03:22:31;6.88;99.99
72320;SHT30;60269;52.502;16.732;2024-02-28T03:26:03;6.84;99.99
72320;SHT30;60269;52.502;16.732;2024-02-28T03:29:35;6.83;99.99
72320;SHT30;60269;52.502;16.732;2024-02-28T03:33:07;6.77;99.99
72320;SHT30;60269;52.502;16.732;2024-02-28T03:36:40;6.79;99.99
72320;SHT30;60269;52.502;16.732;2024-02-28T03:40:12;6.81;99.99
72320;SHT30;60269;52.502;16.732;2024-02-28T03:43:44;6.80;99.99
72320;SHT30;60269;52.502;16.732;2024-02-28T03:47:16;6.79;99.99
72320;SHT30;60269;52.502;16.732;2024-02-28T03:50:47;6.81;99.99
72320;SHT30;60269;52.502;16.732;2024-02-28T03:54:19;6.83;99.99
72320;SHT30;60269;52.502;16.732;2024-02-28T03:57:51;6.79;99.99
72320;SHT30;60269;52.502;16.732;2024-02-28T04:01:24;6.79;99.99
72320;SHT30;60269;52.502;16.732;2024-02-28T04:04:56;6.80;99.99
72320;SHT30;60269;52.502;16.732;2024-02-28T04:08:28;6.83;99.99
72320;SHT30;60269;52.502;16.732;2024-02-28T04:12:00;6.85;99.99
72320;SHT30;60269;52.502;16.732;2024-02-28T04:15:32;6.84;99.99
72320;SHT30;60269;52.502;16.732;2024-02-28T04:19:04;6.81;99.99
72320;SHT30;60269;52.502;16.732;2024-02-28T04:22:36;6.83;99.99
72320;SHT30;60269;52.502;16.732;2024-02-28T04:26:08;6.85;99.99
72320;SHT30;60269;52.502;16.732;2024-02-28T04:29:41;6.88;99.91
72320;SHT30;60269;52.502;16.732;2024-02-28T04:33:13;6.79;99.88
72320;SHT30;60269;52.502;16.732;2024-02-28T04:36:45;6.72;99.99
72320;SHT30;60269;52.502;16.732;2024-02-28T04:40:17;6.72;99.99
72320;SHT30;60269;52.502;16.732;2024-02-28T04:43:49;6.70;99.99
72320;SHT30;60269;52.502;16.732;2024-02-28T04:47:21;6.62;99.99
72320;SHT30;60269;52.502;16.732;2024-02-28T04:51:04;6.56;99.99
72320;SHT30;60269;52.502;16.732;2024-02-28T04:54:36;6.49;99.99
72320;SHT30;60269;52.502;16.732;2024-02-28T04:58:08;6.47;99.99
72320;SHT30;60269;52.502;16.732;2024-02-28T05:01:40;6.39;99.99
72320;SHT30;60269;52.502;16.732;2024-02-28T05:05:14;6.39;99.99
72320;SHT30;60269;52.502;16.732;2024-02-28T05:08:46;6.40;99.99
72320;SHT30;60269;52.502;16.732;2024-02-28T05:12:18;6.46;99.99
72320;SHT30;60269;52.502;16.732;2024-02-28T05:15:50;6.42;99.99
72320;SHT30;60269;52.502;16.732;2024-02-28T05:19:22;6.40;99.99
72320;SHT30;60269;52.502;16.732;2024-02-28T05:22:54;6.46;99.99
72320;SHT30;60269;52.502;16.732;2024-02-28T05:26:26;6.42;99.99
72320;SHT30;60269;52.502;16.732;2024-02-28T05:29:58;6.39;99.99
72320;SHT30;60269;52.502;16.732;2024-02-28T05:33:32;6.33;99.99
72320;SHT30;60269;52.502;16.732;2024-02-28T05:37:04;6.28;99.99
72320;SHT30;60269;52.502;16.732;2024-02-28T05:40:36;6.29;99.99
72320;SHT30;60269;52.502;16.732;2024-02-28T05:44:08;6.32;99.99
72320;SHT30;60269;52.502;16.732;2024-02-28T05:47:40;6.32;99.99
72320;SHT30;60269;52.502;16.732;2024-02-28T05:51:12;6.32;99.99
72320;SHT30;60269;52.502;16.732;2024-02-28T05:54:47;6.29;99.99
72320;SHT30;60269;52.502;16.732;2024-02-28T05:58:20;6.33;99.99
72320;SHT30;60269;52.502;16.732;2024-02-28T06:01:52;6.35;99.99
72320;SHT30;60269;52.502;16.732;2024-02-28T06:05:24;6.39;99.99
72320;SHT30;60269;52.502;16.732;2024-02-28T06:08:56;6.40;99.99
72320;SHT30;60269;52.502;16.732;2024-02-28T06:12:28;6.49;99.99
72320;SHT30;60269;52.502;16.732;2024-02-28T06:16:00;6.43;99.99
72320;SHT30;60269;52.502;16.732;2024-02-28T06:19:32;6.47;99.99
72320;SHT30;60269;52.502;16.732;2024-02-28T06:23:04;6.50;99.99
72320;SHT30;60269;52.502;16.732;2024-02-28T06:26:47;6.53;99.99
72320;SHT30;60269;52.502;16.732;2024-02-28T06:30:21;6.63;99.99
72320;SHT30;60269;52.502;16.732;2024-02-28T06:33:53;6.76;99.99
72320;SHT30;60269;52.502;16.732;2024-02-28T06:37:25;6.74;99.99
72320;SHT30;60269;52.502;16.732;2024-02-28T06:40:57;6.74;99.99
72320;SHT30;60269;52.502;16.732;2024-02-28T06:44:29;6.76;99.99
72320;SHT30;60269;52.502;16.732;2024-02-28T06:48:01;6.73;99.99
72320;SHT30;60269;52.502;16.732;2024-02-28T06:51:33;6.79;99.99
72320;SHT30;60269;52.502;16.732;2024-02-28T06:55:05;6.81;99.99
72320;SHT30;60269;52.502;16.732;2024-02-28T06:58:45;6.77;99.99
72320;SHT30;60269;52.502;16.732;2024-02-28T07:02:17;6.81;99.99
72320;SHT30;60269;52.502;16.732;2024-02-28T07:05:49;6.83;99.99
72320;SHT30;60269;52.502;16.732;2024-02-28T07:09:21;6.79;99.99
72320;SHT30;60269;52.502;16.732;2024-02-28T07:12:53;6.80;99.99
72320;SHT30;60269;52.502;16.732;2024-02-28T07:16:25;6.88;99.99
72320;SHT30;60269;52.502;16.732;2024-02-28T07:19:57;6.88;99.99
72320;SHT30;60269;52.502;16.732;2024-02-28T07:23:29;6.85;99.99
72320;SHT30;60269;52.502;16.732;2024-02-28T07:27:02;6.91;99.99
72320;SHT30;60269;52.502;16.732;2024-02-28T07:30:34;6.85;99.99
72320;SHT30;60269;52.502;16.732;2024-02-28T07:34:07;6.81;99.99
72320;SHT30;60269;52.502;16.732;2024-02-28T07:37:40;6.81;99.99
72320;SHT30;60269;52.502;16.732;2024-02-28T07:41:12;6.81;99.99
72320;SHT30;60269;52.502;16.732;2024-02-28T07:44:44;6.72;99.99
72320;SHT30;60269;52.502;16.732;2024-02-28T07:48:16;6.73;99.99
72320;SHT30;60269;52.502;16.732;2024-02-28T07:51:51;6.73;99.99
72320;SHT30;60269;52.502;16.732;2024-02-28T07:55:23;6.62;99.99
72320;SHT30;60269;52.502;16.732;2024-02-28T07:58:55;6.63;99.99
72320;SHT30;60269;52.502;16.732;2024-02-28T08:02:28;6.66;99.99
72320;SHT30;60269;52.502;16.732;2024-02-28T08:06:00;6.58;99.99
72320;SHT30;60269;52.502;16.732;2024-02-28T08:09:32;6.56;99.99
72320;SHT30;60269;52.502;16.732;2024-02-28T08:13:04;6.56;99.99
72320;SHT30;60269;52.502;16.732;2024-02-28T08:16:36;6.52;99.99
72320;SHT30;60269;52.502;16.732;2024-02-28T08:20:08;6.46;99.99
72320;SHT30;60269;52.502;16.732;2024-02-28T08:23:41;6.44;99.99
72320;SHT30;60269;52.502;16.732;2024-02-28T08:27:12;6.46;99.99
72320;SHT30;60269;52.502;16.732;2024-02-28T08:30:44;6.39;99.99
72320;SHT30;60269;52.502;16.732;2024-02-28T08:34:16;6.44;99.99
72320;SHT30;60269;52.502;16.732;2024-02-28T08:37:50;6.43;99.99
72320;SHT30;60269;52.502;16.732;2024-02-28T08:41:22;6.52;99.72
72320;SHT30;60269;52.502;16.732;2024-02-28T08:44:54;6.52;99.59
72320;SHT30;60269;52.502;16.732;2024-02-28T08:48:30;6.53;99.38
72320;SHT30;60269;52.502;16.732;2024-02-28T08:52:02;6.49;99.01
72320;SHT30;60269;52.502;16.732;2024-02-28T08:55:35;6.36;99.36
72320;SHT30;60269;52.502;16.732;2024-02-28T08:59:07;6.43;99.24
72320;SHT30;60269;52.502;16.732;2024-02-28T09:02:39;6.40;99.00
72320;SHT30;60269;52.502;16.732;2024-02-28T09:06:11;6.28;99.00
72320;SHT30;60269;52.502;16.732;2024-02-28T09:09:43;6.29;98.91
72320;SHT30;60269;52.502;16.732;2024-02-28T09:13:15;6.28;99.14
72320;SHT30;60269;52.502;16.732;2024-02-28T09:16:47;6.28;98.68
72320;SHT30;60269;52.502;16.732;2024-02-28T09:20:19;6.26;99.08
72320;SHT30;60269;52.502;16.732;2024-02-28T09:23:51;6.14;98.62
72320;SHT30;60269;52.502;16.732;2024-02-28T09:27:23;6.05;98.70
72320;SHT30;60269;52.502;16.732;2024-02-28T09:30:57;6.14;98.89
72320;SHT30;60269;52.502;16.732;2024-02-28T09:34:29;6.28;98.64
72320;SHT30;60269;52.502;16.732;2024-02-28T09:38:01;6.19;97.98
72320;SHT30;60269;52.502;16.732;2024-02-28T09:41:34;6.33;98.06
72320;SHT30;60269;52.502;16.732;2024-02-28T09:45:08;6.26;97.43
72320;SHT30;60269;52.502;16.732;2024-02-28T09:48:41;6.21;97.39
72320;SHT30;60269;52.502;16.732;2024-02-28T09:52:13;6.23;97.55
72320;SHT30;60269;52.502;16.732;2024-02-28T09:55:51;6.28;97.74
72320;SHT30;60269;52.502;16.732;2024-02-28T09:59:24;6.36;97.30
72320;SHT30;60269;52.502;16.732;2024-02-28T10:03:12;6.58;96.35
72320;SHT30;60269;52.502;16.732;2024-02-28T10:06:46;6.57;95.88
72320;SHT30;60269;52.502;16.732;2024-02-28T10:10:21;6.63;95.98
72320;SHT30;60269;52.502;16.732;2024-02-28T10:13:54;6.72;95.82
72320;SHT30;60269;52.502;16.732;2024-02-28T10:17:28;6.70;95.23
72320;SHT30;60269;52.502;16.732;2024-02-28T10:21:00;6.56;95.47
72320;SHT30;60269;52.502;16.732;2024-02-28T10:24:33;6.44;95.97
72320;SHT30;60269;52.502;16.732;2024-02-28T10:28:06;6.19;96.32
72320;SHT30;60269;52.502;16.732;2024-02-28T10:31:38;6.14;96.66
72320;SHT30;60269;52.502;16.732;2024-02-28T10:35:10;6.11;96.83
72320;SHT30;60269;52.502;16.732;2024-02-28T10:38:44;6.06;96.43
72320;SHT30;60269;52.502;16.732;2024-02-28T10:42:16;6.16;96.74
72320;SHT30;60269;52.502;16.732;2024-02-28T10:45:48;6.26;96.25
72320;SHT30;60269;52.502;16.732;2024-02-28T10:49:42;6.36;95.77
72320;SHT30;60269;52.502;16.732;2024-02-28T10:53:16;6.33;95.99
72320;SHT30;60269;52.502;16.732;2024-02-28T10:56:51;6.46;95.34
72320;SHT30;60269;52.502;16.732;2024-02-28T11:00:25;6.53;95.59
72320;SHT30;60269;52.502;16.732;2024-02-28T11:03:57;6.56;95.62
72320;SHT30;60269;52.502;16.732;2024-02-28T11:07:30;6.30;96.05
72320;SHT30;60269;52.502;16.732;2024-02-28T11:11:03;6.12;96.35
72320;SHT30;60269;52.502;16.732;2024-02-28T11:14:36;6.16;96.29
72320;SHT30;60269;52.502;16.732;2024-02-28T11:18:09;6.25;96.19
72320;SHT30;60269;52.502;16.732;2024-02-28T11:21:41;6.43;95.21
72320;SHT30;60269;52.502;16.732;2024-02-28T11:25:13;6.46;95.04
72320;SHT30;60269;52.502;16.732;2024-02-28T11:28:47;6.60;95.16
72320;SHT30;60269;52.502;16.732;2024-02-28T11:32:18;6.56;94.59
72320;SHT30;60269;52.502;16.732;2024-02-28T11:35:57;6.66;94.99
72320;SHT30;60269;52.502;16.732;2024-02-28T11:39:29;6.54;94.99
72320;SHT30;60269;52.502;16.732;2024-02-28T11:43:03;6.49;94.95
72320;SHT30;60269;52.502;16.732;2024-02-28T11:46:35;6.52;94.83
72320;SHT30;60269;52.502;16.732;2024-02-28T11:50:07;6.30;95.70
72320;SHT30;60269;52.502;16.732;2024-02-28T11:53:41;6.21;95.83
72320;SHT30;60269;52.502;16.732;2024-02-28T11:57:13;5.93;96.19
72320;SHT30;60269;52.502;16.732;2024-02-28T12:00:50;5.88;96.57
72320;SHT30;60269;52.502;16.732;2024-02-28T12:04:24;5.90;97.03
72320;SHT30;60269;52.502;16.732;2024-02-28T12:07:57;5.91;96.81
72320;SHT30;60269;52.502;16.732;2024-02-28T12:11:30;5.85;96.61
72320;SHT30;60269;52.502;16.732;2024-02-28T12:15:05;6.04;96.45
72320;SHT30;60269;52.502;16.732;2024-02-28T12:18:37;6.06;95.91
72320;SHT30;60269;52.502;16.732;2024-02-28T12:22:10;6.02;95.74
72320;SHT30;60269;52.502;16.732;2024-02-28T12:25:42;6.21;95.42
72320;SHT30;60269;52.502;16.732;2024-02-28T12:29:14;6.47;94.65
72320;SHT30;60269;52.502;16.732;2024-02-28T12:32:46;6.66;94.16
72320;SHT30;60269;52.502;16.732;2024-02-28T12:36:18;6.64;93.56
72320;SHT30;60269;52.502;16.732;2024-02-28T12:39:50;6.46;94.00
72320;SHT30;60269;52.502;16.732;2024-02-28T12:43:23;6.33;94.15
72320;SHT30;60269;52.502;16.732;2024-02-28T12:46:57;6.29;94.57
72320;SHT30;60269;52.502;16.732;2024-02-28T12:50:29;6.32;94.50
72320;SHT30;60269;52.502;16.732;2024-02-28T12:54:01;6.37;94.21
72320;SHT30;60269;52.502;16.732;2024-02-28T12:57:33;6.36;93.68
72320;SHT30;60269;52.502;16.732;2024-02-28T13:01:05;6.36;93.90
72320;SHT30;60269;52.502;16.732;2024-02-28T13:04:37;6.43;93.78
72320;SHT30;60269;52.502;16.732;2024-02-28T13:08:09;6.44;93.83
72320;SHT30;60269;52.502;16.732;2024-02-28T13:11:42;6.37;94.17
72320;SHT30;60269;52.502;16.732;2024-02-28T13:15:15;6.46;94.06
72320;SHT30;60269;52.502;16.732;2024-02-28T13:18:47;6.47;93.82
72320;SHT30;60269;52.502;16.732;2024-02-28T13:22:19;6.35;93.69
72320;SHT30;60269;52.502;16.732;2024-02-28T13:25:51;6.16;94.42
72320;SHT30;60269;52.502;16.732;2024-02-28T13:29:23;6.01;94.75
72320;SHT30;60269;52.502;16.732;2024-02-28T13:32:55;5.93;95.18
72320;SHT30;60269;52.502;16.732;2024-02-28T13:36:29;5.87;95.52
72320;SHT30;60269;52.502;16.732;2024-02-28T13:40:02;5.78;95.65
72320;SHT30;60269;52.502;16.732;2024-02-28T13:43:40;5.90;95.70
72320;SHT30;60269;52.502;16.732;2024-02-28T13:47:12;6.01;95.45
72320;SHT30;60269;52.502;16.732;2024-02-28T13:50:48;5.91;95.58
72320;SHT30;60269;52.502;16.732;2024-02-28T13:54:19;5.79;95.89
72320;SHT30;60269;52.502;16.732;2024-02-28T13:57:51;5.79;95.64
72320;SHT30;60269;52.502;16.732;2024-02-28T14:01:24;5.73;95.94
72320;SHT30;60269;52.502;16.732;2024-02-28T14:04:56;5.68;96.25
72320;SHT30;60269;52.502;16.732;2024-02-28T14:08:28;5.66;96.14
72320;SHT30;60269;52.502;16.732;2024-02-28T14:12:06;5.70;95.27
72320;SHT30;60269;52.502;16.732;2024-02-28T14:15:38;5.66;95.78
72320;SHT30;60269;52.502;16.732;2024-02-28T14:19:10;5.75;95.56
72320;SHT30;60269;52.502;16.732;2024-02-28T14:22:43;5.57;95.63
72320;SHT30;60269;52.502;16.732;2024-02-28T14:26:15;5.54;96.02
72320;SHT30;60269;52.502;16.732;2024-02-28T14:29:47;5.70;95.89
72320;SHT30;60269;52.502;16.732;2024-02-28T14:33:19;5.66;95.83
72320;SHT30;60269;52.502;16.732;2024-02-28T14:36:52;5.48;95.53
72320;SHT30;60269;52.502;16.732;2024-02-28T14:40:24;5.50;95.59
72320;SHT30;60269;52.502;16.732;2024-02-28T14:43:57;5.53;95.57
72320;SHT30;60269;52.502;16.732;2024-02-28T14:47:29;5.54;95.58
72320;SHT30;60269;52.502;16.732;2024-02-28T14:51:01;5.57;95.31
72320;SHT30;60269;52.502;16.732;2024-02-28T14:54:34;5.48;95.75
72320;SHT30;60269;52.502;16.732;2024-02-28T14:58:06;5.53;95.87
72320;SHT30;60269;52.502;16.732;2024-02-28T15:01:38;5.51;95.76
72320;SHT30;60269;52.502;16.732;2024-02-28T15:05:11;5.47;96.01
72320;SHT30;60269;52.502;16.732;2024-02-28T15:08:43;5.44;96.06
72320;SHT30;60269;52.502;16.732;2024-02-28T15:12:15;5.30;95.95
72320;SHT30;60269;52.502;16.732;2024-02-28T15:15:51;5.32;96.03
72320;SHT30;60269;52.502;16.732;2024-02-28T15:19:23;5.20;96.01
72320;SHT30;60269;52.502;16.732;2024-02-28T15:22:55;5.25;96.02
72320;SHT30;60269;52.502;16.732;2024-02-28T15:26:30;5.20;95.82
72320;SHT30;60269;52.502;16.732;2024-02-28T15:30:20;5.25;95.99
72320;SHT30;60269;52.502;16.732;2024-02-28T15:33:52;5.15;95.74
72320;SHT30;60269;52.502;16.732;2024-02-28T15:37:25;5.09;96.08
72320;SHT30;60269;52.502;16.732;2024-02-28T15:40:57;5.06;95.97
72320;SHT30;60269;52.502;16.732;2024-02-28T15:44:29;5.12;95.63
72320;SHT30;60269;52.502;16.732;2024-02-28T15:48:01;4.99;95.89
72320;SHT30;60269;52.502;16.732;2024-02-28T15:51:33;4.99;96.17
72320;SHT30;60269;52.502;16.732;2024-02-28T15:55:06;5.06;95.77
72320;SHT30;60269;52.502;16.732;2024-02-28T15:58:38;4.96;95.59
72320;SHT30;60269;52.502;16.732;2024-02-28T16:02:11;4.93;95.98
72320;SHT30;60269;52.502;16.732;2024-02-28T16:05:43;4.91;96.25
72320;SHT30;60269;52.502;16.732;2024-02-28T16:09:15;4.98;96.24
72320;SHT30;60269;52.502;16.732;2024-02-28T16:12:49;4.93;96.23
72320;SHT30;60269;52.502;16.732;2024-02-28T16:16:21;4.84;96.45
72320;SHT30;60269;52.502;16.732;2024-02-28T16:19:54;4.84;96.51
72320;SHT30;60269;52.502;16.732;2024-02-28T16:23:26;4.84;96.73
72320;SHT30;60269;52.502;16.732;2024-02-28T16:26:58;4.85;96.80
72320;SHT30;60269;52.502;16.732;2024-02-28T16:30:30;4.79;96.94
72320;SHT30;60269;52.502;16.732;2024-02-28T16:34:02;4.81;96.63
72320;SHT30;60269;52.502;16.732;2024-02-28T16:37:34;4.79;96.24
72320;SHT30;60269;52.502;16.732;2024-02-28T16:41:06;4.68;96.17
72320;SHT30;60269;52.502;16.732;2024-02-28T16:44:38;4.75;95.85
72320;SHT30;60269;52.502;16.732;2024-02-28T16:48:10;4.79;96.24
72320;SHT30;60269;52.502;16.732;2024-02-28T16:51:42;4.75;96.25
72320;SHT30;60269;52.502;16.732;2024-02-28T16:55:15;4.71;96.09
72320;SHT30;60269;52.502;16.732;2024-02-28T16:58:47;4.79;95.80
72320;SHT30;60269;52.502;16.732;2024-02-28T17:02:19;4.77;95.67
72320;SHT30;60269;52.502;16.732;2024-02-28T17:05:51;4.77;95.88
72320;SHT30;60269;52.502;16.732;2024-02-28T17:09:24;4.84;95.51
72320;SHT30;60269;52.502;16.732;2024-02-28T17:12:56;4.81;95.80
72320;SHT30;60269;52.502;16.732;2024-02-28T17:16:28;4.74;95.67
72320;SHT30;60269;52.502;16.732;2024-02-28T17:19:59;4.72;95.83
72320;SHT30;60269;52.502;16.732;2024-02-28T17:23:33;4.72;95.68
72320;SHT30;60269;52.502;16.732;2024-02-28T17:27:05;4.64;95.41
72320;SHT30;60269;52.502;16.732;2024-02-28T17:30:38;4.71;95.45
72320;SHT30;60269;52.502;16.732;2024-02-28T17:34:10;4.68;95.42
72320;SHT30;60269;52.502;16.732;2024-02-28T17:37:46;4.65;95.61
72320;SHT30;60269;52.502;16.732;2024-02-28T17:41:18;4.69;95.22
72320;SHT30;60269;52.502;16.732;2024-02-28T17:44:50;4.77;94.90
72320;SHT30;60269;52.502;16.732;2024-02-28T17:48:23;4.64;93.22
72320;SHT30;60269;52.502;16.732;2024-02-28T17:51:55;4.58;93.57
72320;SHT30;60269;52.502;16.732;2024-02-28T17:55:27;4.53;93.78
72320;SHT30;60269;52.502;16.732;2024-02-28T17:59:00;4.39;93.62
72320;SHT30;60269;52.502;16.732;2024-02-28T18:02:32;4.29;94.36
72320;SHT30;60269;52.502;16.732;2024-02-28T18:06:05;4.24;94.27
72320;SHT30;60269;52.502;16.732;2024-02-28T18:09:37;4.21;94.44
72320;SHT30;60269;52.502;16.732;2024-02-28T18:13:11;4.17;94.42
72320;SHT30;60269;52.502;16.732;2024-02-28T18:16:43;4.14;94.48
72320;SHT30;60269;52.502;16.732;2024-02-28T18:20:15;4.16;94.58
72320;SHT30;60269;52.502;16.732;2024-02-28T18:23:47;4.05;94.56
72320;SHT30;60269;52.502;16.732;2024-02-28T18:27:19;4.03;94.98
72320;SHT30;60269;52.502;16.732;2024-02-28T18:30:51;3.96;95.01
72320;SHT30;60269;52.502;16.732;2024-02-28T18:34:23;3.90;94.83
72320;SHT30;60269;52.502;16.732;2024-02-28T18:37:55;3.88;95.05
72320;SHT30;60269;52.502;16.732;2024-02-28T18:41:26;3.81;95.50
72320;SHT30;60269;52.502;16.732;2024-02-28T18:44:58;3.83;95.08
72320;SHT30;60269;52.502;16.732;2024-02-28T18:48:30;3.86;95.26
72320;SHT30;60269;52.502;16.732;2024-02-28T18:52:04;3.89;94.46
72320;SHT30;60269;52.502;16.732;2024-02-28T18:55:36;3.90;94.65
72320;SHT30;60269;52.502;16.732;2024-02-28T18:59:08;3.90;94.39
72320;SHT30;60269;52.502;16.732;2024-02-28T19:02:40;3.85;94.49
72320;SHT30;60269;52.502;16.732;2024-02-28T19:06:12;3.86;94.62
72320;SHT30;60269;52.502;16.732;2024-02-28T19:09:44;3.86;94.52
72320;SHT30;60269;52.502;16.732;2024-02-28T19:13:16;3.95;94.66
72320;SHT30;60269;52.502;16.732;2024-02-28T19:16:49;3.95;94.18
72320;SHT30;60269;52.502;16.732;2024-02-28T19:20:21;3.92;94.45
72320;SHT30;60269;52.502;16.732;2024-02-28T19:23:53;3.99;94.27
72320;SHT30;60269;52.502;16.732;2024-02-28T19:27:25;3.98;94.41
72320;SHT30;60269;52.502;16.732;2024-02-28T19:30:57;3.96;94.72
72320;SHT30;60269;52.502;16.732;2024-02-28T19:34:32;4.09;94.16
72320;SHT30;60269;52.502;16.732;2024-02-28T19:38:04;4.14;93.75
72320;SHT30;60269;52.502;16.732;2024-02-28T19:41:36;4.07;93.64
72320;SHT30;60269;52.502;16.732;2024-02-28T19:45:10;4.00;93.59
72320;SHT30;60269;52.502;16.732;2024-02-28T19:48:43;4.00;93.71
72320;SHT30;60269;52.502;16.732;2024-02-28T19:52:17;4.03;93.60
72320;SHT30;60269;52.502;16.732;2024-02-28T19:55:49;4.11;93.04
72320;SHT30;60269;52.502;16.732;2024-02-28T19:59:21;4.00;92.20
72320;SHT30;60269;52.502;16.732;2024-02-28T20:02:53;3.90;91.29
72320;SHT30;60269;52.502;16.732;2024-02-28T20:06:26;3.98;91.91
72320;SHT30;60269;52.502;16.732;2024-02-28T20:09:57;4.03;91.54
72320;SHT30;60269;52.502;16.732;2024-02-28T20:13:29;4.00;91.55
72320;SHT30;60269;52.502;16.732;2024-02-28T20:17:05;3.99;91.11
72320;SHT30;60269;52.502;16.732;2024-02-28T20:20:38;3.96;90.07
72320;SHT30;60269;52.502;16.732;2024-02-28T20:24:10;3.86;90.30
72320;SHT30;60269;52.502;16.732;2024-02-28T20:27:43;3.75;90.10
72320;SHT30;60269;52.502;16.732;2024-02-28T20:31:15;3.68;90.82
72320;SHT30;60269;52.502;16.732;2024-02-28T20:34:48;3.74;91.09
72320;SHT30;60269;52.502;16.732;2024-02-28T20:38:20;3.81;91.09
72320;SHT30;60269;52.502;16.732;2024-02-28T20:41:55;3.89;90.60
72320;SHT30;60269;52.502;16.732;2024-02-28T20:45:27;3.83;90.54
72320;SHT30;60269;52.502;16.732;2024-02-28T20:48:59;3.98;90.14
72320;SHT30;60269;52.502;16.732;2024-02-28T20:52:31;3.86;90.51
72320;SHT30;60269;52.502;16.732;2024-02-28T20:56:03;3.85;90.05
72320;SHT30;60269;52.502;16.732;2024-02-28T20:59:35;3.74;89.31
72320;SHT30;60269;52.502;16.732;2024-02-28T21:03:07;3.72;89.63
72320;SHT30;60269;52.502;16.732;2024-02-28T21:06:41;3.79;88.87
72320;SHT30;60269;52.502;16.732;2024-02-28T21:10:13;3.77;89.19
72320;SHT30;60269;52.502;16.732;2024-02-28T21:13:45;3.79;88.97
72320;SHT30;60269;52.502;16.732;2024-02-28T21:17:18;3.79;89.02
72320;SHT30;60269;52.502;16.732;2024-02-28T21:20:51;3.64;89.60
72320;SHT30;60269;52.502;16.732;2024-02-28T21:24:24;3.57;89.81
72320;SHT30;60269;52.502;16.732;2024-02-28T21:27:57;3.51;88.83
72320;SHT30;60269;52.502;16.732;2024-02-28T21:31:29;3.52;89.77
72320;SHT30;60269;52.502;16.732;2024-02-28T21:35:01;3.58;88.94
72320;SHT30;60269;52.502;16.732;2024-02-28T21:38:33;3.47;89.08
72320;SHT30;60269;52.502;16.732;2024-02-28T21:42:06;3.44;89.41
72320;SHT30;60269;52.502;16.732;2024-02-28T21:45:38;3.35;87.02
72320;SHT30;60269;52.502;16.732;2024-02-28T21:49:10;3.30;87.80
72320;SHT30;60269;52.502;16.732;2024-02-28T21:52:44;3.31;88.16
72320;SHT30;60269;52.502;16.732;2024-02-28T21:56:16;3.37;87.71
72320;SHT30;60269;52.502;16.732;2024-02-28T21:59:51;3.35;87.32
72320;SHT30;60269;52.502;16.732;2024-02-28T22:03:24;3.40;86.49
72320;SHT30;60269;52.502;16.732;2024-02-28T22:06:56;3.34;87.58
72320;SHT30;60269;52.502;16.732;2024-02-28T22:10:29;3.38;87.81
72320;SHT30;60269;52.502;16.732;2024-02-28T22:14:01;3.57;87.68
72320;SHT30;60269;52.502;16.732;2024-02-28T22:17:34;3.62;86.80
72320;SHT30;60269;52.502;16.732;2024-02-28T22:21:06;3.62;86.99